createdAt,value
2022-11-17T00:01:22.083Z,1.90
2022-11-17T00:03:49.704Z,1.30
2022-11-17T00:06:17.048Z,1.45
2022-11-17T00:08:43.591Z,1.58
2022-11-17T00:11:10.028Z,1.38
2022-11-17T00:13:57.972Z,1.92
2022-11-17T00:16:24.341Z,1.42
2022-11-17T00:19:10.133Z,1.30
2022-11-17T00:21:36.580Z,1.80
2022-11-17T00:24:03.235Z,1.40
2022-11-17T00:26:32.621Z,1.73
2022-11-17T00:29:01.336Z,1.58
2022-11-17T00:31:48.207Z,1.30
2022-11-17T00:34:19.886Z,1.40
2022-11-17T00:36:51.518Z,1.38
2022-11-17T00:39:21.995Z,1.75
2022-11-17T00:41:50.662Z,1.70
2022-11-17T00:44:17.587Z,1.65
2022-11-17T00:46:46.255Z,1.50
2022-11-17T00:49:14.425Z,1.50
2022-11-17T00:51:41.512Z,1.58
2022-11-17T00:54:11.375Z,1.50
2022-11-17T00:56:38.061Z,1.02
2022-11-17T00:59:04.606Z,1.50
2022-11-17T01:01:31.356Z,1.60
2022-11-17T01:04:03.642Z,1.40
2022-11-17T01:06:36.234Z,1.60
2022-11-17T01:09:05.206Z,1.67
2022-11-17T01:11:31.730Z,1.45
2022-11-17T01:14:00.010Z,1.27
2022-11-17T01:16:30.325Z,1.58
2022-11-17T01:19:00.272Z,1.65
2022-11-17T01:21:28.531Z,1.70
2022-11-17T01:23:58.859Z,2.30
2022-11-17T01:26:28.314Z,1.60
2022-11-17T01:28:55.327Z,1.35
2022-11-17T01:31:27.641Z,1.30
2022-11-17T01:33:54.395Z,1.20
2022-11-17T01:36:26.801Z,1.25
2022-11-17T01:38:53.243Z,1.25
2022-11-17T01:41:27.708Z,0.98
2022-11-17T01:43:58.360Z,1.20
2022-11-17T01:46:40.563Z,1.45
2022-11-17T01:49:18.763Z,1.60
2022-11-17T01:51:48.954Z,1.80
2022-11-17T01:54:19.292Z,1.50
2022-11-17T01:56:55.042Z,0.90
2022-11-17T01:59:30.307Z,0.95
2022-11-17T02:01:57.775Z,1.38
2022-11-17T02:04:35.498Z,1.65
2022-11-17T02:07:13.676Z,1.58
2022-11-17T02:09:41.071Z,1.67
2022-11-17T02:12:10.987Z,0.90
2022-11-17T02:14:40.419Z,1.50
2022-11-17T02:17:13.757Z,1.65
2022-11-17T02:19:42.938Z,1.45
2022-11-17T02:22:47.192Z,1.10
2022-11-17T02:25:38.085Z,1.38
2022-11-17T02:28:24.864Z,1.70
2022-11-17T02:30:59.746Z,1.30
2022-11-17T02:33:49.597Z,1.27
2022-11-17T02:36:34.738Z,1.42
2022-11-17T02:39:18.964Z,1.30
2022-11-17T02:42:14.017Z,1.58
2022-11-17T02:44:52.696Z,1.30
2022-11-17T02:47:24.558Z,1.33
2022-11-17T02:50:00.923Z,1.40
2022-11-17T02:52:30.068Z,1.10
2022-11-17T02:55:04.343Z,1.45
2022-11-17T02:57:37.326Z,1.33
2022-11-17T03:00:07.765Z,1.50
2022-11-17T03:02:59.593Z,1.02
2022-11-17T03:05:37.964Z,1.17
2022-11-17T03:08:11.602Z,1.10
2022-11-17T03:10:59.544Z,1.30
2022-11-17T03:13:31.737Z,1.38
2022-11-17T03:16:24.432Z,0.90
2022-11-17T03:21:40.808Z,1.20
2022-11-17T03:24:28.441Z,1.38
2022-11-17T03:27:01.957Z,1.80
2022-11-17T03:29:32.684Z,1.13
2022-11-17T03:32:07.053Z,1.10
2022-11-17T03:34:46.015Z,1.27
2022-11-17T03:37:15.482Z,1.40
2022-11-17T03:39:45.241Z,1.73
2022-11-17T03:42:30.822Z,2.08
2022-11-17T03:45:05.681Z,2.03
2022-11-17T03:47:33.643Z,1.70
2022-11-17T03:50:08.198Z,2.55
2022-11-17T03:52:36.479Z,2.30
2022-11-17T03:55:03.399Z,2.90
2022-11-17T03:58:01.068Z,2.45
2022-11-17T04:00:27.674Z,2.80
2022-11-17T04:02:56.083Z,2.83
2022-11-17T04:05:22.816Z,2.20
2022-11-17T04:07:49.524Z,1.70
2022-11-17T04:10:18.407Z,2.58
2022-11-17T04:13:03.684Z,1.90
2022-11-17T04:15:49.144Z,1.52
2022-11-17T04:18:15.885Z,1.77
2022-11-17T04:20:45.374Z,1.45
2022-11-17T04:23:14.200Z,1.35
2022-11-17T04:26:01.819Z,1.15
2022-11-17T04:28:41.515Z,1.17
2022-11-17T04:31:14.179Z,1.00
2022-11-17T04:33:42.978Z,1.10
2022-11-17T04:36:13.208Z,1.40
2022-11-17T04:38:44.395Z,1.52
2022-11-17T04:41:31.545Z,1.85
2022-11-17T04:43:58.495Z,1.67
2022-11-17T04:46:25.704Z,1.90
2022-11-17T04:48:55.046Z,1.58
2022-11-17T04:51:27.504Z,1.40
2022-11-17T04:53:54.456Z,1.48
2022-11-17T04:56:22.073Z,2.28
2022-11-17T04:58:54.128Z,2.28
2022-11-17T05:01:22.302Z,1.75
2022-11-17T05:03:55.846Z,1.50
2022-11-17T05:06:26.653Z,1.75
2022-11-17T05:08:57.988Z,1.52
2022-11-17T05:11:45.778Z,1.30
2022-11-17T05:14:17.781Z,1.95
2022-11-17T05:17:09.051Z,1.60
2022-11-17T05:19:46.512Z,1.38
2022-11-17T05:22:36.978Z,1.63
2022-11-17T05:25:04.814Z,1.20
2022-11-17T05:27:31.662Z,1.10
2022-11-17T05:30:00.458Z,1.45
2022-11-17T05:32:26.937Z,1.20
2022-11-17T05:34:53.429Z,1.33
2022-11-17T05:37:19.983Z,1.60
2022-11-17T05:39:46.483Z,1.23
2022-11-17T05:42:12.891Z,1.40
2022-11-17T05:44:41.691Z,1.50
2022-11-17T05:47:08.136Z,1.33
2022-11-17T05:49:37.082Z,1.23
2022-11-17T05:52:03.545Z,1.60
2022-11-17T05:54:30.084Z,1.13
2022-11-17T05:57:04.126Z,1.52
2022-11-17T05:59:46.363Z,1.23
2022-11-17T06:02:18.672Z,1.17
2022-11-17T06:07:12.878Z,1.58
2022-11-17T06:09:41.870Z,0.60
2022-11-17T06:12:08.625Z,1.35
2022-11-17T06:14:35.658Z,1.10
2022-11-17T06:17:07.725Z,1.17
2022-11-17T06:19:40.691Z,2.72
2022-11-17T06:22:12.638Z,1.38
2022-11-17T06:24:44.964Z,1.13
2022-11-17T06:27:18.734Z,1.27
2022-11-17T06:29:46.883Z,1.10
2022-11-17T06:32:14.915Z,0.95
2022-11-17T06:34:43.297Z,0.90
2022-11-17T06:37:11.897Z,1.10
2022-11-17T06:39:40.590Z,0.80
2022-11-17T06:42:06.977Z,0.68
2022-11-17T06:44:33.509Z,1.23
2022-11-17T06:47:02.958Z,1.20
2022-11-17T06:49:34.168Z,1.27
2022-11-17T06:52:00.534Z,0.80
2022-11-17T06:54:26.957Z,1.10
2022-11-17T06:56:56.142Z,0.73
2022-11-17T06:59:22.626Z,0.90
2022-11-17T07:01:49.023Z,1.13
2022-11-17T07:04:15.676Z,1.30
2022-11-17T07:06:42.038Z,1.08
2022-11-17T07:09:08.432Z,1.17
2022-11-17T07:11:36.244Z,1.67
2022-11-17T07:14:07.706Z,0.90
2022-11-17T07:16:36.501Z,0.82
2022-11-17T07:19:03.774Z,1.00
2022-11-17T07:21:32.910Z,1.10
2022-11-17T07:23:59.352Z,0.90
2022-11-17T07:26:25.776Z,1.58
2022-11-17T07:28:52.138Z,1.30
2022-11-17T07:31:18.623Z,1.60
2022-11-17T07:33:45.251Z,2.20
2022-11-17T07:36:14.479Z,2.35
2022-11-17T07:38:43.618Z,1.05
2022-11-17T07:41:14.043Z,1.33
2022-11-17T07:43:40.589Z,1.98
2022-11-17T07:46:12.372Z,1.33
2022-11-17T07:48:43.064Z,2.60
2022-11-17T07:51:09.886Z,1.48
2022-11-17T07:53:38.654Z,1.90
2022-11-17T07:56:07.647Z,2.10
2022-11-17T07:58:34.810Z,1.63
2022-11-17T08:01:27.904Z,1.77
2022-11-17T08:03:54.455Z,1.02
2022-11-17T08:06:21.116Z,1.85
2022-11-17T08:08:49.595Z,1.48
2022-11-17T08:11:16.194Z,1.38
2022-11-17T08:13:42.649Z,1.60
2022-11-17T08:16:10.381Z,1.52
2022-11-17T08:18:40.311Z,1.48
2022-11-17T08:21:08.324Z,1.08
2022-11-17T08:23:35.500Z,1.38
2022-11-17T08:26:03.606Z,1.58
2022-11-17T08:28:30.598Z,1.45
2022-11-17T08:31:03.087Z,1.40
2022-11-17T08:33:29.619Z,1.20
2022-11-17T08:36:01.005Z,1.30
2022-11-17T08:38:29.172Z,1.67
2022-11-17T08:41:01.719Z,1.27
2022-11-17T08:43:28.278Z,0.88
2022-11-17T08:45:54.764Z,0.93
2022-11-17T08:48:21.801Z,0.93
2022-11-17T08:50:49.311Z,1.20
2022-11-17T08:53:18.900Z,1.05
2022-11-17T08:55:45.523Z,0.73
2022-11-17T08:58:12.368Z,0.82
2022-11-17T09:00:40.314Z,0.55
2022-11-17T09:03:10.890Z,1.05
2022-11-17T09:05:40.080Z,0.50
2022-11-17T09:08:43.423Z,1.02
2022-11-17T09:10:57.481Z,1.17
2022-11-17T09:13:27.048Z,1.10
2022-11-17T09:15:53.480Z,0.70
2022-11-17T09:18:19.847Z,0.82
2022-11-17T09:20:46.491Z,0.77
2022-11-17T09:23:13.166Z,1.30
2022-11-17T09:25:42.027Z,1.65
2022-11-17T09:28:08.583Z,1.25
2022-11-17T09:30:36.243Z,1.25
2022-11-17T09:33:07.528Z,1.50
2022-11-17T09:35:34.073Z,1.07
2022-11-17T09:38:03.460Z,1.10
2022-11-17T09:40:36.305Z,0.98
2022-11-17T09:43:11.134Z,1.30
2022-11-17T09:45:39.177Z,1.35
2022-11-17T09:48:40.289Z,1.17
2022-11-17T09:51:10.698Z,1.00
2022-11-17T09:53:50.991Z,1.33
2022-11-17T09:56:17.593Z,1.52
2022-11-17T09:58:50.377Z,1.08
2022-11-17T10:01:19.082Z,1.40
2022-11-17T10:03:48.563Z,1.63
2022-11-17T10:06:19.548Z,1.52
2022-11-17T10:09:01.279Z,1.10
2022-11-17T10:11:33.872Z,1.42
2022-11-17T10:14:12.412Z,0.73
2022-11-17T10:16:42.161Z,1.35
2022-11-17T10:19:22.210Z,1.67
2022-11-17T10:22:08.864Z,1.92
2022-11-17T10:24:50.852Z,1.65
2022-11-17T10:27:17.258Z,0.90
2022-11-17T10:30:03.582Z,1.63
2022-11-17T10:32:36.609Z,1.30
2022-11-17T10:35:19.593Z,0.52
2022-11-17T10:38:08.690Z,1.40
2022-11-17T10:40:41.054Z,1.65
2022-11-17T10:43:13.568Z,1.85
2022-11-17T10:45:45.346Z,1.50
2022-11-17T10:48:35.580Z,1.77
2022-11-17T10:51:10.457Z,1.13
2022-11-17T10:53:46.807Z,2.38
2022-11-17T10:56:24.863Z,2.42
2022-11-17T10:59:02.592Z,1.10
2022-11-17T11:01:30.800Z,1.00
2022-11-17T11:03:57.380Z,1.20
2022-11-17T11:06:32.101Z,0.60
2022-11-17T11:09:01.903Z,0.73
2022-11-17T11:11:48.310Z,0.77
2022-11-17T11:14:18.134Z,0.80
2022-11-17T11:16:51.805Z,0.88
2022-11-17T11:19:19.949Z,0.80
2022-11-17T11:22:01.398Z,2.20
2022-11-17T11:24:50.986Z,1.60
2022-11-17T11:27:48.250Z,1.20
2022-11-17T11:30:19.356Z,1.08
2022-11-17T11:32:54.677Z,1.17
2022-11-17T11:35:23.856Z,1.38
2022-11-17T11:37:59.334Z,2.22
2022-11-17T11:40:35.008Z,3.05
2022-11-17T11:43:25.734Z,1.63
2022-11-17T11:46:07.360Z,1.80
2022-11-17T11:48:36.822Z,1.95
2022-11-17T11:51:19.179Z,1.52
2022-11-17T11:56:27.580Z,2.17
2022-11-17T11:58:59.092Z,1.10
2022-11-17T12:01:28.940Z,2.03
2022-11-17T12:04:40.875Z,1.85
2022-11-17T12:07:28.792Z,1.70
2022-11-17T12:10:36.496Z,1.95
2022-11-17T12:13:04.127Z,1.10
2022-11-17T12:15:36.969Z,1.80
2022-11-17T12:18:17.330Z,2.25
2022-11-17T12:20:56.431Z,1.27
2022-11-17T12:23:47.739Z,1.30
2022-11-17T12:26:25.468Z,1.50
2022-11-17T12:29:20.563Z,1.35
2022-11-17T12:31:51.680Z,1.75
2022-11-17T12:34:36.831Z,1.00
2022-11-17T12:37:13.133Z,1.15
2022-11-17T12:39:54.904Z,1.40
2022-11-17T12:42:21.349Z,1.13
2022-11-17T12:44:50.123Z,1.05
2022-11-17T12:47:42.086Z,0.73
2022-11-17T12:50:08.733Z,0.68
2022-11-17T12:53:20.371Z,1.20
2022-11-17T12:56:14.695Z,0.98
2022-11-17T12:58:59.564Z,0.93
2022-11-17T13:01:38.301Z,0.70
2022-11-17T13:04:12.093Z,1.27
2022-11-17T13:06:38.817Z,1.00
2022-11-17T13:09:12.072Z,0.98
2022-11-17T13:11:41.603Z,0.75
2022-11-17T13:14:16.592Z,0.90
2022-11-17T13:16:49.463Z,1.42
2022-11-17T13:22:05.726Z,0.65
2022-11-17T13:24:42.364Z,0.88
2022-11-17T13:27:28.931Z,0.77
2022-11-17T13:30:27.744Z,1.77
2022-11-17T13:32:55.802Z,1.70
2022-11-17T13:35:23.827Z,0.77
2022-11-17T13:38:02.672Z,0.88
2022-11-17T13:40:33.867Z,0.95
2022-11-17T13:43:03.109Z,1.67
2022-11-17T13:45:29.774Z,0.90
2022-11-17T13:48:01.804Z,1.17
2022-11-17T13:50:33.486Z,1.05
2022-11-17T13:53:13.727Z,0.50
2022-11-17T13:55:46.978Z,0.50
2022-11-17T13:58:38.571Z,0.60
2022-11-17T14:01:05.158Z,0.53
2022-11-17T14:03:33.246Z,0.63
2022-11-17T14:05:59.717Z,0.20
2022-11-17T14:08:32.066Z,0.57
2022-11-17T14:11:15.643Z,0.77
2022-11-17T14:13:59.096Z,0.70
2022-11-17T14:16:27.401Z,0.50
2022-11-17T14:19:16.781Z,1.10
2022-11-17T14:22:01.553Z,2.17
2022-11-17T14:24:28.587Z,1.80
2022-11-17T14:27:00.126Z,0.82
2022-11-17T14:29:30.206Z,0.38
2022-11-17T14:31:57.321Z,0.45
2022-11-17T14:34:26.423Z,0.50
2022-11-17T14:36:57.270Z,1.50
2022-11-17T14:39:23.712Z,0.77
2022-11-17T14:41:51.058Z,0.75
2022-11-17T14:44:17.538Z,1.10
2022-11-17T14:46:46.383Z,0.50
2022-11-17T14:49:13.264Z,1.02
2022-11-17T14:51:40.067Z,0.95
2022-11-17T14:54:06.715Z,0.95
2022-11-17T14:56:34.633Z,0.90
2022-11-17T14:59:01.204Z,3.35
2022-11-17T15:01:30.963Z,3.70
2022-11-17T15:03:59.992Z,2.15
2022-11-17T15:06:27.166Z,2.55
2022-11-17T15:09:01.366Z,2.65
2022-11-17T15:11:33.922Z,1.75
2022-11-17T15:14:05.604Z,1.15
2022-11-17T15:16:32.705Z,1.63
2022-11-17T15:18:59.858Z,1.63
2022-11-17T15:21:26.291Z,1.00
2022-11-17T15:23:57.540Z,1.58
2022-11-17T15:26:23.976Z,1.67
2022-11-17T15:28:52.727Z,1.65
2022-11-17T15:31:20.162Z,1.90
2022-11-17T15:33:47.949Z,1.67
2022-11-17T15:36:19.533Z,2.33
2022-11-17T15:38:47.767Z,2.08
2022-11-17T15:41:15.193Z,1.67
2022-11-17T15:43:43.396Z,2.40
2022-11-17T15:46:14.914Z,2.00
2022-11-17T15:48:43.456Z,2.05
2022-11-17T15:51:20.680Z,1.48
2022-11-17T15:53:48.519Z,2.15
2022-11-17T15:56:20.870Z,1.95
2022-11-17T16:01:25.120Z,1.83
2022-11-17T16:03:53.141Z,1.90
2022-11-17T16:06:19.671Z,1.55
2022-11-17T16:08:46.052Z,1.85
2022-11-17T16:11:12.596Z,1.50
2022-11-17T16:13:38.962Z,2.78
2022-11-17T16:16:12.294Z,2.70
2022-11-17T16:18:39.219Z,1.50
2022-11-17T16:21:08.420Z,2.00
2022-11-17T16:23:43.293Z,2.30
2022-11-17T16:26:13.536Z,1.70
2022-11-17T16:28:40.307Z,2.13
2022-11-17T16:31:15.280Z,2.88
2022-11-17T16:33:50.435Z,4.93
2022-11-17T16:36:18.208Z,4.25
2022-11-17T16:38:59.841Z,4.05
2022-11-17T16:44:11.764Z,3.38
2022-11-17T16:46:40.827Z,4.82
2022-11-17T16:49:12.941Z,3.83
2022-11-17T16:54:11.381Z,3.53
2022-11-17T16:56:37.958Z,3.33
2022-11-17T16:59:04.485Z,3.50
2022-11-17T17:01:33.115Z,3.45
2022-11-17T17:04:01.895Z,2.92
2022-11-17T17:06:29.306Z,3.25
2022-11-17T17:09:02.984Z,2.97
2022-11-17T17:11:31.777Z,2.40
2022-11-17T17:14:03.089Z,2.35
2022-11-17T17:16:31.242Z,2.95
2022-11-17T17:18:59.993Z,1.52
2022-11-17T17:21:27.926Z,2.13
2022-11-17T17:23:54.816Z,1.90
2022-11-17T17:26:23.034Z,1.65
2022-11-17T17:28:51.748Z,3.17
2022-11-17T17:31:21.888Z,3.35
2022-11-17T17:33:52.547Z,3.58
2022-11-17T17:36:24.412Z,3.42
2022-11-17T17:38:55.814Z,2.78
2022-11-17T17:41:24.960Z,2.90
2022-11-17T17:43:57.395Z,2.75
2022-11-17T17:46:24.373Z,3.40
2022-11-17T17:48:55.620Z,5.75
2022-11-17T17:51:29.080Z,3.47
2022-11-17T17:53:58.230Z,3.67
2022-11-17T17:56:25.255Z,3.17
2022-11-17T17:58:55.220Z,4.82
2022-11-17T18:01:29.671Z,4.10
2022-11-17T18:04:04.715Z,3.78
2022-11-17T18:06:42.541Z,4.80
2022-11-17T18:09:10.792Z,4.80
2022-11-17T18:11:37.319Z,4.55
2022-11-17T18:14:04.004Z,3.40
2022-11-17T18:16:33.026Z,4.25
2022-11-17T18:19:04.905Z,4.53
2022-11-17T18:21:31.927Z,4.22
2022-11-17T18:24:00.831Z,4.35
2022-11-17T18:26:33.010Z,3.40
2022-11-17T18:29:01.977Z,3.67
2022-11-17T18:31:32.444Z,4.13
2022-11-17T18:34:13.665Z,4.22
2022-11-17T18:36:40.234Z,4.72
2022-11-17T18:39:06.674Z,4.00
2022-11-17T18:41:34.067Z,5.55
2022-11-17T18:44:01.367Z,2.75
2022-11-17T18:46:30.743Z,4.78
2022-11-17T18:48:57.950Z,4.70
2022-11-17T18:51:27.106Z,3.47
2022-11-17T18:53:57.977Z,10.95
2022-11-17T18:56:31.373Z,3.13
2022-11-17T18:58:57.835Z,15.60
2022-11-17T19:01:27.763Z,3.55
2022-11-17T19:04:00.218Z,7.00
2022-11-17T19:08:54.026Z,13.73
2022-11-17T19:11:22.308Z,16.08
2022-11-17T19:13:49.038Z,15.35
2022-11-17T19:16:23.705Z,14.48
2022-11-17T19:18:52.693Z,11.73
2022-11-17T19:21:30.910Z,9.70
2022-11-17T19:23:59.452Z,8.27
2022-11-17T19:26:33.909Z,6.53
2022-11-17T19:29:02.977Z,6.50
2022-11-17T19:31:32.064Z,4.53
2022-11-17T19:33:59.370Z,4.15
2022-11-17T19:36:31.348Z,4.15
2022-11-17T19:38:59.405Z,4.10
2022-11-17T19:41:30.996Z,3.85
2022-11-17T19:44:00.466Z,3.50
2022-11-17T19:46:28.141Z,3.63
2022-11-17T19:48:58.363Z,30.55
2022-11-17T19:51:27.521Z,9.48
2022-11-17T19:53:56.232Z,28.52
2022-11-17T19:56:24.381Z,6.75
2022-11-17T19:58:51.923Z,8.52
2022-11-17T20:01:26.482Z,5.70
2022-11-17T20:03:56.220Z,5.22
2022-11-17T20:06:27.365Z,4.93
2022-11-17T20:08:55.409Z,4.97
2022-11-17T20:11:24.195Z,5.10
2022-11-17T20:13:50.875Z,4.60
2022-11-17T20:16:19.752Z,4.75
2022-11-17T20:18:50.893Z,5.05
2022-11-17T20:21:18.253Z,5.88
2022-11-17T20:23:45.441Z,6.47
2022-11-17T20:26:25.353Z,9.77
2022-11-17T20:28:52.655Z,5.90
2022-11-17T20:31:24.682Z,12.65
2022-11-17T20:33:52.503Z,12.38
2022-11-17T20:36:21.435Z,7.82
2022-11-17T20:38:51.959Z,15.23
2022-11-17T20:41:20.865Z,9.23
2022-11-17T20:43:51.853Z,6.65
2022-11-17T20:46:18.934Z,6.57
2022-11-17T20:48:45.819Z,5.78
2022-11-17T20:51:14.860Z,4.80
2022-11-17T20:53:41.276Z,3.97
2022-11-17T20:56:09.985Z,3.88
2022-11-17T20:58:37.049Z,3.70
2022-11-17T21:01:11.174Z,4.32
2022-11-17T21:03:38.230Z,5.35
2022-11-17T21:06:05.334Z,5.18
2022-11-17T21:08:34.606Z,9.27
2022-11-17T21:11:03.621Z,3.95
2022-11-17T21:13:32.434Z,2.85
2022-11-17T21:16:02.017Z,2.65
2022-11-17T21:18:30.787Z,3.45
2022-11-17T21:21:04.804Z,11.15
2022-11-17T21:23:31.449Z,4.15
2022-11-17T21:25:57.925Z,3.67
2022-11-17T21:28:24.557Z,9.75
2022-11-17T21:30:53.472Z,5.55
2022-11-17T21:33:19.967Z,10.38
2022-11-17T21:35:48.857Z,8.60
2022-11-17T21:38:15.350Z,6.72
2022-11-17T21:40:41.774Z,4.45
2022-11-17T21:43:08.203Z,2.70
2022-11-17T21:45:34.678Z,10.43
2022-11-17T21:48:01.231Z,4.25
2022-11-17T21:50:27.744Z,5.63
2022-11-17T21:52:54.333Z,4.85
2022-11-17T21:55:21.001Z,7.50
2022-11-17T21:57:50.505Z,4.60
2022-11-17T22:00:17.974Z,3.75
2022-11-17T22:02:44.463Z,5.95
2022-11-17T22:05:13.553Z,3.90
2022-11-17T22:07:39.987Z,3.70
2022-11-17T22:10:07.152Z,4.10
2022-11-17T22:12:33.746Z,7.88
2022-11-17T22:15:04.214Z,6.22
2022-11-17T22:17:33.722Z,6.45
2022-11-17T22:20:00.225Z,5.53
2022-11-17T22:22:26.713Z,5.82
2022-11-17T22:24:53.193Z,4.50
2022-11-17T22:27:22.139Z,3.20
2022-11-17T22:29:48.589Z,2.85
2022-11-17T22:32:14.976Z,2.63
2022-11-17T22:34:41.457Z,1.80
2022-11-17T22:37:07.888Z,1.90
2022-11-17T22:39:34.290Z,2.05
2022-11-17T22:42:00.843Z,2.33
2022-11-17T22:44:32.316Z,2.40
2022-11-17T22:46:58.831Z,2.03
2022-11-17T22:49:25.222Z,1.77
2022-11-17T22:52:03.914Z,1.88
2022-11-17T22:54:33.308Z,2.45
2022-11-17T22:57:00.221Z,2.25
2022-11-17T22:59:28.557Z,2.58
2022-11-17T23:01:55.524Z,1.58
2022-11-17T23:04:23.060Z,1.95
2022-11-17T23:06:49.552Z,1.92
2022-11-17T23:09:18.691Z,1.73
2022-11-17T23:11:50.027Z,1.50
2022-11-17T23:14:16.625Z,1.77
2022-11-17T23:16:43.071Z,1.60
2022-11-17T23:19:15.860Z,1.23
2022-11-17T23:21:42.782Z,1.27
2022-11-17T23:24:14.371Z,1.27
2022-11-17T23:26:41.951Z,2.08
2022-11-17T23:29:09.303Z,1.85
2022-11-17T23:31:35.853Z,2.20
2022-11-17T23:34:02.358Z,2.63
2022-11-17T23:36:28.877Z,1.90
2022-11-17T23:38:57.740Z,1.65
2022-11-17T23:41:26.628Z,1.70
2022-11-17T23:43:54.401Z,1.50
2022-11-17T23:46:26.037Z,1.58
2022-11-17T23:48:53.776Z,1.35
2022-11-17T23:51:22.954Z,1.25
2022-11-17T23:53:50.183Z,1.17
2022-11-17T23:56:17.208Z,0.93
2022-11-17T23:58:44.161Z,1.90
